Terminal Aerodrome Forecast
Issued by NWS Jackson, MS

Home | Current Version | Previous Version | Text Only | Print | Product List | Glossary On
Versions: 1 2 3 4 5 6 7 8 9 10 11 12 13
010
FTUS44 KJAN 211744
TAFGWO
TAF
KGWO 211744Z 2118/2218 20007KT 4SM -RA BR BKN007 OVC025
     FM211900 23006KT P6SM VCSH BKN025 BKN050
     FM212100 23007KT P6SM VCSH BKN035 BKN060
     FM220300 VRB03KT 5SM BR BKN015 BKN090
     FM220900 00000KT 1SM BR BKN005=

USA.gov is the U.S. government's official web portal to all federal, state and local government web resources and services.